Laurie Ann Reinauer — WDF2460 — position and weather

sailwx.info

Track history (hours):
 
Tides and Currents Weather Stations Pressure Air Temp Water Temp Dewpoint Dewpoint Depression Visibility Wind Speed Wind Dir Waves Ship Positions

Laurie Ann Reinauer

Owner: HA REINAUER INC., Richmond, NY. More information available from US FCC via Universal Licensing System and Coast Guard Vessel Documentation Center.

Last reported at 2018-Jan-12 01:46 UTC. Time now 2018-Jan-22 00:06 UTC.
Position N 24°22' W 081°39'.
Warning: this ship's position is 9 days out of date.

Length 129 m; draft 4.9 m.

Type: . MMSI: 367428330.

Date/timePositionNaut miles runAvg speedWind from/ knotsBaromVisibWave heightAir tempDewpointWater temp
2018-Jan-12 01:46N 24°22' W 081°39'3 5.0
2018-Jan-12 01:11N 24°23' W 081°36'1 4.9
2018-Jan-12 01:00N 24°23' W 081°35'67 5.6
2018-Jan-11 13:07N 24°50' W 080°28'38 5.9
2018-Jan-11 06:42N 25°20' W 080°04'2 5.2
2018-Jan-11 06:21N 25°22' W 080°03'2 5.0
2018-Jan-11 06:00N 25°24' W 080°03'3 5.2
2018-Jan-11 05:30N 25°26' W 080°03'3 5.8
2018-Jan-11 05:00N 25°29' W 080°03'3 6.0
2018-Jan-11 04:30N 25°32' W 080°03'3 5.3
2018-Jan-11 04:00N 25°35' W 080°03'3 5.6
2018-Jan-11 03:30N 25°38' W 080°02'3 5.9
2018-Jan-11 02:59N 25°41' W 080°02'3 6.1
2018-Jan-11 02:30N 25°44' W 080°02'3 6.3
2018-Jan-11 02:00N 25°47' W 080°03'3 6.3
2018-Jan-11 01:30N 25°50' W 080°03'3 6.5
2018-Jan-11 01:00N 25°53' W 080°03'3 6.7
2018-Jan-11 00:30N 25°57' W 080°03'3 6.7
2018-Jan-11 00:00N 25°60' W 080°03'3 6.7
2018-Jan-10 23:30N 26°03' W 080°03'3 5.2
2018-Jan-10 23:00N 26°06' W 080°05'2 3.1
2018-Jan-10 22:30N 26°07' W 080°04'3 6.4
2018-Jan-10 22:00N 26°10' W 080°03'3 6.8
2018-Jan-10 21:30N 26°13' W 080°02'3 6.8
2018-Jan-10 21:00N 26°17' W 080°02'3 6.9
2018-Jan-10 20:30N 26°20' W 080°01'3 6.8
2018-Jan-10 20:00N 26°24' W 080°01'3 6.6
2018-Jan-10 19:30N 26°27' W 080°01'3 6.5
2018-Jan-10 19:00N 26°30' W 080°00'22 6.8
2018-Jan-10 15:44N 26°52' W 080°00'2 7.0
2018-Jan-10 15:30N 26°54' W 080°00'3 7.0
2018-Jan-10 15:00N 26°57' W 080°01'  
2018-Jan-05 13:38N 39°34' W 074°09'2 6.7
2018-Jan-05 13:16N 39°36' W 074°08'2 6.9
2018-Jan-05 12:59N 39°38' W 074°07'3 6.9
2018-Jan-05 12:29N 39°41' W 074°05'4 6.8
2018-Jan-05 11:51N 39°45' W 074°03'3 6.9
2018-Jan-05 11:26N 39°48' W 074°02'42 7.3
2018-Jan-05 05:36N 40°30' W 073°58'310.8
2018-Jan-05 05:18N 40°32' W 074°01'3 9.3
2018-Jan-05 05:00N 40°35' W 074°02'4 9.0
2018-Jan-05 04:30N 40°39' W 074°03'1 2.9
2018-Jan-05 04:00N 40°40' W 074°02'0 0.1
2018-Jan-05 03:30N 40°40' W 074°02'0 0.0
2018-Jan-05 03:00N 40°40' W 074°02'0 0.0
2018-Jan-05 02:30N 40°40' W 074°02'0 0.0
2018-Jan-05 02:00N 40°40' W 074°02'0 0.0
2018-Jan-05 01:30N 40°40' W 074°02'0 0.0
2018-Jan-05 01:00N 40°40' W 074°02'0 0.0
2018-Jan-05 00:30N 40°40' W 074°02'0 0.0
2018-Jan-05 00:00N 40°40' W 074°02'0 0.0
2018-Jan-04 23:30N 40°40' W 074°02'0 0.0
2018-Jan-04 23:00N 40°40' W 074°02'0 0.0
2018-Jan-04 22:27N 40°40' W 074°02'0 0.0
2018-Jan-04 22:00N 40°40' W 074°02'0 0.0
2018-Jan-04 21:30N 40°40' W 074°02'0 0.0
2018-Jan-04 21:00N 40°40' W 074°02'0 0.0
2018-Jan-04 20:30N 40°40' W 074°02'0 0.0
2018-Jan-04 20:00N 40°40' W 074°02'0 0.0
2018-Jan-04 19:30N 40°40' W 074°02'0 0.0
2018-Jan-04 19:00N 40°40' W 074°02'0 0.0
2018-Jan-04 18:30N 40°40' W 074°02'0 0.0
2018-Jan-04 18:00N 40°40' W 074°02'0 0.0
2018-Jan-04 17:30N 40°40' W 074°02'0 0.0
2018-Jan-04 17:00N 40°40' W 074°02'0 0.0
2018-Jan-04 16:30N 40°40' W 074°02'0 0.0
2018-Jan-04 16:00N 40°40' W 074°02'0 0.0
2018-Jan-04 15:30N 40°40' W 074°02'0 0.0
2018-Jan-04 15:00N 40°40' W 074°02'0 0.0
2018-Jan-04 14:30N 40°40' W 074°02'0 0.0
2018-Jan-04 14:00N 40°40' W 074°02'0 0.0
2018-Jan-04 13:30N 40°40' W 074°02'0 0.0
2018-Jan-04 13:00N 40°40' W 074°02'0 0.0
2018-Jan-04 12:30N 40°40' W 074°02'0 0.0
2018-Jan-04 12:00N 40°40' W 074°02'0 0.0
2018-Jan-04 11:30N 40°40' W 074°02'0 0.1
2018-Jan-04 11:00N 40°40' W 074°02'0 0.0
2018-Jan-04 10:30N 40°40' W 074°02'0 0.1
2018-Jan-04 10:00N 40°40' W 074°02'0 0.0
2018-Jan-04 09:30N 40°40' W 074°02'0 0.0
2018-Jan-04 09:00N 40°40' W 074°02'0 0.0
2018-Jan-04 08:30N 40°40' W 074°02'0 0.0
2018-Jan-04 08:00N 40°40' W 074°02'0 0.0
2018-Jan-04 07:30N 40°40' W 074°02'0 0.0
2018-Jan-04 07:00N 40°40' W 074°02'0 0.0
2018-Jan-04 06:30N 40°40' W 074°02'0 0.1
2018-Jan-04 06:00N 40°40' W 074°02'0 0.0
2018-Jan-04 05:30N 40°40' W 074°02'0 0.0
2018-Jan-04 05:00N 40°40' W 074°02'0 0.0
2018-Jan-04 04:30N 40°40' W 074°02'0 0.1
2018-Jan-04 04:00N 40°40' W 074°02'0 0.2
2018-Jan-04 03:27N 40°40' W 074°02'0 0.1
2018-Jan-04 03:00N 40°40' W 074°02'3 5.3
2018-Jan-04 02:30N 40°39' W 074°05'5 9.7
2018-Jan-04 01:58N 40°38' W 074°12'0 0.0
2018-Jan-03 19:06N 40°38' W 074°12'0 0.0
2018-Jan-03 18:59N 40°38' W 074°12'2 4.0
2018-Jan-03 18:30N 40°39' W 074°09'4 8.4
2018-Jan-03 18:00N 40°39' W 074°04'1 1.0
2018-Jan-03 17:30N 40°39' W 074°03'5 9.6
2018-Jan-03 17:00N 40°39' W 074°10'2 3.0
2018-Jan-03 16:26N 40°38' W 074°12'0 0.0
2018-Jan-03 15:51N 40°38' W 074°12'0 0.0
2018-Jan-03 15:23N 40°38' W 074°12'0 0.1
2018-Jan-03 14:38N 40°38' W 074°12'0 0.0
2018-Jan-03 14:30N 40°38' W 074°12'0 0.1
2018-Jan-03 14:00N 40°38' W 074°12'510.1
2018-Jan-03 13:30N 40°39' W 074°05'3 5.5
2018-Jan-03 13:00N 40°40' W 074°02'0 0.0
2018-Jan-03 12:30N 40°40' W 074°02'0 0.0
2018-Jan-03 12:00N 40°40' W 074°02'0 0.0
2018-Jan-03 11:30N 40°40' W 074°02'0 0.0
2018-Jan-03 11:00N 40°40' W 074°02'0 0.0
2018-Jan-03 10:30N 40°40' W 074°02'0 0.2
2018-Jan-03 10:00N 40°40' W 074°02'0 0.1
2018-Jan-03 09:30N 40°40' W 074°02'0 0.0
2018-Jan-03 09:00N 40°40' W 074°02'0 0.0
2018-Jan-03 08:30N 40°40' W 074°02'0 0.1
2018-Jan-03 08:00N 40°40' W 074°02'0 0.0
2018-Jan-03 07:30N 40°40' W 074°02'0 0.0
2018-Jan-03 07:00N 40°40' W 074°02'0 0.0
2018-Jan-03 06:30N 40°40' W 074°02'0 0.0
2018-Jan-03 06:00N 40°40' W 074°02'0 0.0
2018-Jan-03 05:30N 40°40' W 074°02'0 0.0
2018-Jan-03 05:00N 40°40' W 074°02'0 0.0
2018-Jan-03 04:30N 40°40' W 074°02'0 0.1
2018-Jan-03 04:00N 40°40' W 074°02'0 0.1
2018-Jan-03 03:30N 40°40' W 074°02'0 0.1
2018-Jan-03 03:00N 40°40' W 074°02'0 0.0
2018-Jan-03 02:30N 40°40' W 074°02'0 0.0
2018-Jan-03 02:00N 40°40' W 074°02'0 0.0
2018-Jan-03 01:30N 40°40' W 074°02'0 0.0
2018-Jan-03 01:00N 40°40' W 074°02'0 0.0
2018-Jan-03 00:30N 40°40' W 074°02'0 0.0
2018-Jan-03 00:00N 40°40' W 074°02'0 0.0
2018-Jan-02 23:30N 40°40' W 074°02'0 0.0
2018-Jan-02 23:00N 40°40' W 074°02'2 4.5
2018-Jan-02 22:30N 40°39' W 074°04'3 1.2
2018-Jan-02 20:14N 40°38' W 074°08'0 0.0
2018-Jan-02 19:38N 40°38' W 074°08'0 0.0
2018-Jan-02 16:20N 40°38' W 074°08'1 2.1
2018-Jan-02 16:00N 40°39' W 074°07'4 9.0
2018-Jan-02 15:30N 40°40' W 074°01'0 0.7
2018-Jan-02 15:01N 40°40' W 074°02'0 0.1
2018-Jan-02 14:31N 40°40' W 074°02'0 0.0
2018-Jan-02 13:59N 40°40' W 074°02'0 0.1
2018-Jan-02 13:29N 40°40' W 074°02'0 0.0
2018-Jan-02 12:59N 40°40' W 074°02'0 0.6
2018-Jan-02 12:30N 40°41' W 074°02'3 6.6
2018-Jan-02 12:00N 40°39' W 074°06'4 7.0
2018-Jan-02 11:30N 40°39' W 074°10'  
Track history (hours):
 
Tides and Currents Weather Stations Pressure Air Temp Water Temp Dewpoint Dewpoint Depression Visibility Wind Speed Wind Dir Waves Ship Positions

Laurie Ann Reinauer

Owner: HA REINAUER INC., Richmond, NY. More information available from US FCC via Universal Licensing System and Coast Guard Vessel Documentation Center.

Last reported at 2018-Jan-12 01:46 UTC. Time now 2018-Jan-22 00:06 UTC.
Position N 24°22' W 081°39'.
Warning: this ship's position is 9 days out of date.

Length 129 m; draft 4.9 m.

Type: . MMSI: 367428330.

Date/timePositionNaut miles runAvg speedWind from/ knotsBaromVisibWave heightAir tempDewpointWater temp
2018-Jan-12 01:46N 24°22' W 081°39'3 5.0
2018-Jan-12 01:11N 24°23' W 081°36'1 4.9
2018-Jan-12 01:00N 24°23' W 081°35'67 5.6
2018-Jan-11 13:07N 24°50' W 080°28'38 5.9
2018-Jan-11 06:42N 25°20' W 080°04'2 5.2
2018-Jan-11 06:21N 25°22' W 080°03'2 5.0
2018-Jan-11 06:00N 25°24' W 080°03'3 5.2
2018-Jan-11 05:30N 25°26' W 080°03'3 5.8
2018-Jan-11 05:00N 25°29' W 080°03'3 6.0
2018-Jan-11 04:30N 25°32' W 080°03'3 5.3
2018-Jan-11 04:00N 25°35' W 080°03'3 5.6
2018-Jan-11 03:30N 25°38' W 080°02'3 5.9
2018-Jan-11 02:59N 25°41' W 080°02'3 6.1
2018-Jan-11 02:30N 25°44' W 080°02'3 6.3
2018-Jan-11 02:00N 25°47' W 080°03'3 6.3
2018-Jan-11 01:30N 25°50' W 080°03'3 6.5
2018-Jan-11 01:00N 25°53' W 080°03'3 6.7
2018-Jan-11 00:30N 25°57' W 080°03'3 6.7
2018-Jan-11 00:00N 25°60' W 080°03'3 6.7
2018-Jan-10 23:30N 26°03' W 080°03'3 5.2
2018-Jan-10 23:00N 26°06' W 080°05'2 3.1
2018-Jan-10 22:30N 26°07' W 080°04'3 6.4
2018-Jan-10 22:00N 26°10' W 080°03'3 6.8
2018-Jan-10 21:30N 26°13' W 080°02'3 6.8
2018-Jan-10 21:00N 26°17' W 080°02'3 6.9
2018-Jan-10 20:30N 26°20' W 080°01'3 6.8
2018-Jan-10 20:00N 26°24' W 080°01'3 6.6
2018-Jan-10 19:30N 26°27' W 080°01'3 6.5
2018-Jan-10 19:00N 26°30' W 080°00'22 6.8
2018-Jan-10 15:44N 26°52' W 080°00'2 7.0
2018-Jan-10 15:30N 26°54' W 080°00'3 7.0
2018-Jan-10 15:00N 26°57' W 080°01'  
2018-Jan-05 13:38N 39°34' W 074°09'2 6.7
2018-Jan-05 13:16N 39°36' W 074°08'2 6.9
2018-Jan-05 12:59N 39°38' W 074°07'3 6.9
2018-Jan-05 12:29N 39°41' W 074°05'4 6.8
2018-Jan-05 11:51N 39°45' W 074°03'3 6.9
2018-Jan-05 11:26N 39°48' W 074°02'42 7.3
2018-Jan-05 05:36N 40°30' W 073°58'310.8
2018-Jan-05 05:18N 40°32' W 074°01'3 9.3
2018-Jan-05 05:00N 40°35' W 074°02'4 9.0
2018-Jan-05 04:30N 40°39' W 074°03'1 2.9
2018-Jan-05 04:00N 40°40' W 074°02'0 0.1
2018-Jan-05 03:30N 40°40' W 074°02'0 0.0
2018-Jan-05 03:00N 40°40' W 074°02'0 0.0
2018-Jan-05 02:30N 40°40' W 074°02'0 0.0
2018-Jan-05 02:00N 40°40' W 074°02'0 0.0
2018-Jan-05 01:30N 40°40' W 074°02'0 0.0
2018-Jan-05 01:00N 40°40' W 074°02'0 0.0
2018-Jan-05 00:30N 40°40' W 074°02'0 0.0
2018-Jan-05 00:00N 40°40' W 074°02'0 0.0
2018-Jan-04 23:30N 40°40' W 074°02'0 0.0
2018-Jan-04 23:00N 40°40' W 074°02'0 0.0
2018-Jan-04 22:27N 40°40' W 074°02'0 0.0
2018-Jan-04 22:00N 40°40' W 074°02'0 0.0
2018-Jan-04 21:30N 40°40' W 074°02'0 0.0
2018-Jan-04 21:00N 40°40' W 074°02'0 0.0
2018-Jan-04 20:30N 40°40' W 074°02'0 0.0
2018-Jan-04 20:00N 40°40' W 074°02'0 0.0
2018-Jan-04 19:30N 40°40' W 074°02'0 0.0
2018-Jan-04 19:00N 40°40' W 074°02'0 0.0
2018-Jan-04 18:30N 40°40' W 074°02'0 0.0
2018-Jan-04 18:00N 40°40' W 074°02'0 0.0
2018-Jan-04 17:30N 40°40' W 074°02'0 0.0
2018-Jan-04 17:00N 40°40' W 074°02'0 0.0
2018-Jan-04 16:30N 40°40' W 074°02'0 0.0
2018-Jan-04 16:00N 40°40' W 074°02'0 0.0
2018-Jan-04 15:30N 40°40' W 074°02'0 0.0
2018-Jan-04 15:00N 40°40' W 074°02'0 0.0
2018-Jan-04 14:30N 40°40' W 074°02'0 0.0
2018-Jan-04 14:00N 40°40' W 074°02'0 0.0
2018-Jan-04 13:30N 40°40' W 074°02'0 0.0
2018-Jan-04 13:00N 40°40' W 074°02'0 0.0
2018-Jan-04 12:30N 40°40' W 074°02'0 0.0
2018-Jan-04 12:00N 40°40' W 074°02'0 0.0
2018-Jan-04 11:30N 40°40' W 074°02'0 0.1
2018-Jan-04 11:00N 40°40' W 074°02'0 0.0
2018-Jan-04 10:30N 40°40' W 074°02'0 0.1
2018-Jan-04 10:00N 40°40' W 074°02'0 0.0
2018-Jan-04 09:30N 40°40' W 074°02'0 0.0
2018-Jan-04 09:00N 40°40' W 074°02'0 0.0
2018-Jan-04 08:30N 40°40' W 074°02'0 0.0
2018-Jan-04 08:00N 40°40' W 074°02'0 0.0
2018-Jan-04 07:30N 40°40' W 074°02'0 0.0
2018-Jan-04 07:00N 40°40' W 074°02'0 0.0
2018-Jan-04 06:30N 40°40' W 074°02'0 0.1
2018-Jan-04 06:00N 40°40' W 074°02'0 0.0
2018-Jan-04 05:30N 40°40' W 074°02'0 0.0
2018-Jan-04 05:00N 40°40' W 074°02'0 0.0
2018-Jan-04 04:30N 40°40' W 074°02'0 0.1
2018-Jan-04 04:00N 40°40' W 074°02'0 0.2
2018-Jan-04 03:27N 40°40' W 074°02'0 0.1
2018-Jan-04 03:00N 40°40' W 074°02'3 5.3
2018-Jan-04 02:30N 40°39' W 074°05'5 9.7
2018-Jan-04 01:58N 40°38' W 074°12'0 0.0
2018-Jan-03 19:06N 40°38' W 074°12'0 0.0
2018-Jan-03 18:59N 40°38' W 074°12'2 4.0
2018-Jan-03 18:30N 40°39' W 074°09'4 8.4
2018-Jan-03 18:00N 40°39' W 074°04'1 1.0
2018-Jan-03 17:30N 40°39' W 074°03'5 9.6
2018-Jan-03 17:00N 40°39' W 074°10'2 3.0
2018-Jan-03 16:26N 40°38' W 074°12'0 0.0
2018-Jan-03 15:51N 40°38' W 074°12'0 0.0
2018-Jan-03 15:23N 40°38' W 074°12'0 0.1
2018-Jan-03 14:38N 40°38' W 074°12'0 0.0
2018-Jan-03 14:30N 40°38' W 074°12'0 0.1
2018-Jan-03 14:00N 40°38' W 074°12'510.1
2018-Jan-03 13:30N 40°39' W 074°05'3 5.5
2018-Jan-03 13:00N 40°40' W 074°02'0 0.0
2018-Jan-03 12:30N 40°40' W 074°02'0 0.0
2018-Jan-03 12:00N 40°40' W 074°02'0 0.0
2018-Jan-03 11:30N 40°40' W 074°02'0 0.0
2018-Jan-03 11:00N 40°40' W 074°02'0 0.0
2018-Jan-03 10:30N 40°40' W 074°02'0 0.2
2018-Jan-03 10:00N 40°40' W 074°02'0 0.1
2018-Jan-03 09:30N 40°40' W 074°02'0 0.0
2018-Jan-03 09:00N 40°40' W 074°02'0 0.0
2018-Jan-03 08:30N 40°40' W 074°02'0 0.1
2018-Jan-03 08:00N 40°40' W 074°02'0 0.0
2018-Jan-03 07:30N 40°40' W 074°02'0 0.0
2018-Jan-03 07:00N 40°40' W 074°02'0 0.0
2018-Jan-03 06:30N 40°40' W 074°02'0 0.0
2018-Jan-03 06:00N 40°40' W 074°02'0 0.0
2018-Jan-03 05:30N 40°40' W 074°02'0 0.0
2018-Jan-03 05:00N 40°40' W 074°02'0 0.0
2018-Jan-03 04:30N 40°40' W 074°02'0 0.1
2018-Jan-03 04:00N 40°40' W 074°02'0 0.1
2018-Jan-03 03:30N 40°40' W 074°02'0 0.1
2018-Jan-03 03:00N 40°40' W 074°02'0 0.0
2018-Jan-03 02:30N 40°40' W 074°02'0 0.0
2018-Jan-03 02:00N 40°40' W 074°02'0 0.0
2018-Jan-03 01:30N 40°40' W 074°02'0 0.0
2018-Jan-03 01:00N 40°40' W 074°02'0 0.0
2018-Jan-03 00:30N 40°40' W 074°02'0 0.0
2018-Jan-03 00:00N 40°40' W 074°02'0 0.0
2018-Jan-02 23:30N 40°40' W 074°02'0 0.0
2018-Jan-02 23:00N 40°40' W 074°02'2 4.5
2018-Jan-02 22:30N 40°39' W 074°04'3 1.2
2018-Jan-02 20:14N 40°38' W 074°08'0 0.0
2018-Jan-02 19:38N 40°38' W 074°08'0 0.0
2018-Jan-02 16:20N 40°38' W 074°08'1 2.1
2018-Jan-02 16:00N 40°39' W 074°07'4 9.0
2018-Jan-02 15:30N 40°40' W 074°01'0 0.7
2018-Jan-02 15:01N 40°40' W 074°02'0 0.1
2018-Jan-02 14:31N 40°40' W 074°02'0 0.0
2018-Jan-02 13:59N 40°40' W 074°02'0 0.1
2018-Jan-02 13:29N 40°40' W 074°02'0 0.0
2018-Jan-02 12:59N 40°40' W 074°02'0 0.6
2018-Jan-02 12:30N 40°41' W 074°02'3 6.6
2018-Jan-02 12:00N 40°39' W 074°06'4 7.0
2018-Jan-02 11:30N 40°39' W 074°10'  

Dump ship's entire track history